createdAt,value
2022-10-07T00:04:32.076Z,4.35
2022-10-07T00:09:53.936Z,4.43
2022-10-07T00:15:15.830Z,4.30
2022-10-07T00:20:41.257Z,3.88
2022-10-07T00:26:06.198Z,4.20
2022-10-07T00:31:30.795Z,3.67
2022-10-07T00:36:52.646Z,3.63
2022-10-07T00:42:14.433Z,3.75
2022-10-07T00:47:37.161Z,4.10
2022-10-07T00:53:01.906Z,3.38
2022-10-07T00:58:24.744Z,3.42
2022-10-07T01:03:49.469Z,3.60
2022-10-07T01:09:12.832Z,3.33
2022-10-07T01:15:03.550Z,3.17
2022-10-07T01:20:34.742Z,3.97
2022-10-07T01:26:14.835Z,3.75
2022-10-07T01:31:44.198Z,4.07
2022-10-07T01:37:08.402Z,4.03
2022-10-07T01:42:30.581Z,3.47
2022-10-07T01:47:52.394Z,3.33
2022-10-07T01:53:52.981Z,3.42
2022-10-07T01:59:30.079Z,3.60
2022-10-07T02:05:00.964Z,3.40
2022-10-07T02:10:48.087Z,3.67
2022-10-07T02:16:33.881Z,3.35
2022-10-07T02:21:57.567Z,3.60
2022-10-07T02:27:28.033Z,3.53
2022-10-07T02:32:56.742Z,3.60
2022-10-07T02:38:19.013Z,3.70
2022-10-07T02:43:48.680Z,3.13
2022-10-07T02:49:13.977Z,4.03
2022-10-07T02:54:43.160Z,3.58
2022-10-07T03:00:10.756Z,3.83
2022-10-07T03:05:34.721Z,4.75
2022-10-07T03:10:56.390Z,4.13
2022-10-07T03:16:18.218Z,4.15
2022-10-07T03:21:40.516Z,3.55
2022-10-07T03:27:02.196Z,3.95
2022-10-07T03:32:27.064Z,3.47
2022-10-07T03:37:48.804Z,3.80
2022-10-07T03:43:10.625Z,4.30
2022-10-07T03:48:32.497Z,3.88
2022-10-07T03:53:57.343Z,4.20
2022-10-07T03:59:19.049Z,3.80
2022-10-07T04:04:40.750Z,4.38
2022-10-07T04:10:02.538Z,4.22
2022-10-07T04:15:24.258Z,3.67
2022-10-07T04:20:45.954Z,4.07
2022-10-07T04:26:09.804Z,3.50
2022-10-07T04:31:31.539Z,4.25
2022-10-07T04:36:54.260Z,3.70
2022-10-07T04:42:36.242Z,3.88
2022-10-07T04:47:58.091Z,4.55
2022-10-07T04:53:20.829Z,3.70
2022-10-07T04:58:42.508Z,4.07
2022-10-07T05:04:04.406Z,5.93
2022-10-07T05:09:26.099Z,4.68
2022-10-07T05:14:47.915Z,5.65
2022-10-07T05:20:12.309Z,5.05
2022-10-07T05:25:33.994Z,6.68
2022-10-07T05:31:10.754Z,5.43
2022-10-07T05:36:32.578Z,5.10
2022-10-07T05:41:54.289Z,5.70
2022-10-07T05:47:17.901Z,5.60
2022-10-07T05:52:39.921Z,4.60
2022-10-07T05:58:01.658Z,5.68
2022-10-07T06:03:25.889Z,4.45
2022-10-07T06:08:48.140Z,5.22
2022-10-07T06:14:09.874Z,4.93
2022-10-07T06:19:31.578Z,4.80
2022-10-07T06:24:57.450Z,5.05
2022-10-07T06:30:19.236Z,5.03
2022-10-07T06:35:41.005Z,5.47
2022-10-07T06:41:05.187Z,5.80
2022-10-07T06:46:27.004Z,4.65
2022-10-07T06:51:49.772Z,5.40
2022-10-07T06:57:40.443Z,5.78
2022-10-07T07:02:53.107Z,6.50
2022-10-07T07:08:16.681Z,5.50
2022-10-07T07:13:39.498Z,4.93
2022-10-07T07:19:07.157Z,5.25
2022-10-07T07:24:28.864Z,5.22
2022-10-07T07:29:50.679Z,6.13
2022-10-07T07:35:12.436Z,5.80
2022-10-07T07:40:37.460Z,5.53
2022-10-07T07:45:59.323Z,5.50
2022-10-07T07:51:22.134Z,5.75
2022-10-07T07:56:44.665Z,5.47
2022-10-07T08:02:07.263Z,5.50
2022-10-07T08:07:29.079Z,4.82
2022-10-07T08:12:50.777Z,5.25
2022-10-07T08:18:12.440Z,4.53
2022-10-07T08:23:35.655Z,3.97
2022-10-07T08:28:57.904Z,3.63
2022-10-07T08:34:19.585Z,3.70
2022-10-07T08:39:41.330Z,3.17
2022-10-07T08:45:03.833Z,3.78
2022-10-07T08:50:41.196Z,2.97
2022-10-07T08:56:16.489Z,2.97
2022-10-07T09:02:00.174Z,3.00
2022-10-07T09:07:36.130Z,3.53
2022-10-07T09:13:03.543Z,3.05
2022-10-07T09:18:41.202Z,3.22
2022-10-07T09:24:18.807Z,2.88
2022-10-07T09:29:40.611Z,3.17
2022-10-07T09:35:05.950Z,3.30
2022-10-07T09:40:27.622Z,3.22
2022-10-07T09:45:49.269Z,3.03
2022-10-07T09:51:13.897Z,3.30
2022-10-07T09:56:41.772Z,3.97
2022-10-07T10:02:15.443Z,3.40
2022-10-07T10:07:48.376Z,4.10
2022-10-07T10:13:33.116Z,4.07
2022-10-07T10:19:03.394Z,3.85
2022-10-07T10:24:47.698Z,4.00
2022-10-07T10:30:16.179Z,4.15
2022-10-07T10:35:45.969Z,3.63
2022-10-07T10:41:24.586Z,4.07
2022-10-07T10:47:12.875Z,4.15
2022-10-07T10:52:56.190Z,3.63
2022-10-07T10:58:42.853Z,4.20
2022-10-07T11:04:16.608Z,4.05
2022-10-07T11:09:51.952Z,3.95
2022-10-07T11:15:19.444Z,3.95
2022-10-07T11:20:47.965Z,3.50
2022-10-07T11:26:33.796Z,4.53
2022-10-07T11:32:04.828Z,4.47
2022-10-07T11:37:40.014Z,4.80
2022-10-07T11:43:12.524Z,4.85
2022-10-07T11:48:40.805Z,5.20
2022-10-07T11:54:06.411Z,4.50
2022-10-07T11:59:58.543Z,4.95
2022-10-07T12:05:35.192Z,5.30
2022-10-07T12:11:15.532Z,4.97
2022-10-07T12:16:37.201Z,4.55
2022-10-07T12:21:59.383Z,5.18
2022-10-07T12:27:28.366Z,4.38
2022-10-07T12:32:50.402Z,4.57
2022-10-07T12:38:13.074Z,4.00
2022-10-07T12:43:54.590Z,4.07
2022-10-07T12:49:41.603Z,3.97
2022-10-07T12:55:10.971Z,4.15
2022-10-07T13:00:33.371Z,4.00
2022-10-07T13:06:32.625Z,4.72
2022-10-07T13:12:03.638Z,3.75
2022-10-07T13:17:46.182Z,4.05
2022-10-07T13:23:15.930Z,4.22
2022-10-07T13:28:47.121Z,4.05
2022-10-07T13:34:17.966Z,3.88
2022-10-07T13:39:39.720Z,4.00
2022-10-07T13:45:02.762Z,4.20
2022-10-07T13:50:27.645Z,3.63
2022-10-07T13:55:49.419Z,3.72
2022-10-07T14:01:12.482Z,4.78
2022-10-07T14:06:43.239Z,5.07
2022-10-07T14:12:12.127Z,4.20
2022-10-07T14:17:47.004Z,3.88
2022-10-07T14:23:28.214Z,3.90
2022-10-07T14:28:50.059Z,3.33
2022-10-07T14:34:32.719Z,3.72
2022-10-07T14:39:54.402Z,4.10
2022-10-07T14:45:17.955Z,4.15
2022-10-07T14:50:40.112Z,3.90
2022-10-07T14:56:01.854Z,3.47
2022-10-07T15:01:25.456Z,4.18
2022-10-07T15:06:50.751Z,3.35
2022-10-07T15:12:15.823Z,3.55
2022-10-07T15:17:38.408Z,3.72
2022-10-07T15:23:02.547Z,4.30
2022-10-07T15:28:24.301Z,3.65
2022-10-07T15:33:46.127Z,3.65
2022-10-07T15:39:10.014Z,3.60
2022-10-07T15:44:31.781Z,3.38
2022-10-07T15:49:53.581Z,3.65
2022-10-07T15:55:16.257Z,4.38
2022-10-07T16:00:38.005Z,5.38
2022-10-07T16:06:02.172Z,6.72
2022-10-07T16:11:25.676Z,4.57
2022-10-07T16:16:47.368Z,4.75
2022-10-07T16:22:09.502Z,4.72
2022-10-07T16:27:51.167Z,4.03
2022-10-07T16:33:12.875Z,5.07
2022-10-07T16:38:34.557Z,5.80
2022-10-07T16:43:59.599Z,4.10
2022-10-07T16:49:21.352Z,4.90
2022-10-07T16:54:43.167Z,4.82
2022-10-07T17:00:05.578Z,5.55
2022-10-07T17:05:27.347Z,4.60
2022-10-07T17:10:49.081Z,5.57
2022-10-07T17:16:10.958Z,4.50
2022-10-07T17:21:34.868Z,4.93
2022-10-07T17:26:56.771Z,4.38
2022-10-07T17:32:18.443Z,4.82
2022-10-07T17:37:40.150Z,4.97
2022-10-07T17:43:06.802Z,4.57
2022-10-07T17:48:28.966Z,5.07
2022-10-07T17:53:51.095Z,4.80
2022-10-07T17:59:14.228Z,4.75
2022-10-07T18:04:36.363Z,4.45
2022-10-07T18:09:58.173Z,4.57
2022-10-07T18:15:19.858Z,4.90
2022-10-07T18:20:41.536Z,5.60
2022-10-07T18:26:11.777Z,4.78
2022-10-07T18:31:33.600Z,5.65
2022-10-07T18:36:56.924Z,4.85
2022-10-07T18:42:19.184Z,5.25
2022-10-07T18:47:40.901Z,4.95
2022-10-07T18:53:02.653Z,5.32
2022-10-07T18:58:24.340Z,5.57
2022-10-07T19:03:46.342Z,6.05
2022-10-07T19:09:11.282Z,5.57
2022-10-07T19:14:34.565Z,6.13
2022-10-07T19:20:00.411Z,8.63
2022-10-07T19:25:41.023Z,6.80
2022-10-07T19:31:17.996Z,5.03
2022-10-07T19:36:42.225Z,6.32
2022-10-07T19:42:04.357Z,6.28
2022-10-07T19:47:26.084Z,6.57
2022-10-07T19:52:47.754Z,7.13
2022-10-07T19:58:09.459Z,7.35
2022-10-07T20:03:31.188Z,8.85
2022-10-07T20:08:53.946Z,8.25
2022-10-07T20:14:16.187Z,7.13
2022-10-07T20:19:38.184Z,9.93
2022-10-07T20:25:01.062Z,8.52
2022-10-07T20:30:22.878Z,8.32
2022-10-07T20:35:44.612Z,9.25
2022-10-07T20:41:26.635Z,8.90
2022-10-07T20:46:51.711Z,8.75
2022-10-07T20:52:19.797Z,10.32
2022-10-07T20:57:41.727Z,9.43
2022-10-07T21:03:03.466Z,7.82
2022-10-07T21:08:26.060Z,7.22
2022-10-07T21:13:47.734Z,8.00
2022-10-07T21:19:09.557Z,8.02
2022-10-07T21:24:34.379Z,8.10
2022-10-07T21:29:56.273Z,8.50
2022-10-07T21:35:17.922Z,7.95
2022-10-07T21:40:39.669Z,8.35
2022-10-07T21:46:02.408Z,9.30
2022-10-07T21:51:29.613Z,10.15
2022-10-07T21:56:51.418Z,10.05
2022-10-07T22:02:13.746Z,9.60
2022-10-07T22:07:53.786Z,8.95
2022-10-07T22:13:15.504Z,9.65
2022-10-07T22:18:37.226Z,9.20
2022-10-07T22:24:01.214Z,8.13
2022-10-07T22:29:23.104Z,8.35
2022-10-07T22:35:03.086Z,7.97
2022-10-07T22:40:26.138Z,8.95
2022-10-07T22:45:58.523Z,9.02
2022-10-07T22:51:20.821Z,8.90
2022-10-07T22:56:42.635Z,8.43
2022-10-07T23:02:04.317Z,7.88
2022-10-07T23:07:25.969Z,8.77
2022-10-07T23:12:48.117Z,8.13
2022-10-07T23:18:10.143Z,8.43
2022-10-07T23:23:37.151Z,8.55
2022-10-07T23:29:00.469Z,8.40
2022-10-07T23:34:22.424Z,8.05
2022-10-07T23:39:44.170Z,9.98
2022-10-07T23:45:06.343Z,9.30
2022-10-07T23:50:28.062Z,8.10
2022-10-07T23:55:52.036Z,8.43
